createdAt,value
2022-12-13T00:00:41.064Z,66.90
2022-12-13T00:03:44.248Z,67.10
2022-12-13T00:06:47.647Z,67.10
2022-12-13T00:09:50.653Z,66.70
2022-12-13T00:12:55.271Z,66.50
2022-12-13T00:15:58.849Z,66.40
2022-12-13T00:19:02.721Z,66.80
2022-12-13T00:22:05.596Z,66.90
2022-12-13T00:25:09.310Z,66.90
2022-12-13T00:28:13.923Z,67.20
2022-12-13T00:34:41.875Z,66.90
2022-12-13T00:37:45.617Z,67.30
2022-12-13T00:40:48.757Z,67.30
2022-12-13T00:43:53.069Z,67.10
2022-12-13T00:46:56.501Z,67.20
2022-12-13T00:49:59.966Z,67.70
2022-12-13T00:53:03.186Z,66.90
2022-12-13T00:56:11.767Z,67.60
2022-12-13T00:59:16.640Z,66.60
2022-12-13T01:02:19.668Z,66.80
2022-12-13T01:05:40.046Z,66.50
2022-12-13T01:08:46.815Z,66.30
2022-12-13T01:11:50.081Z,66.20
2022-12-13T01:14:56.273Z,65.30
2022-12-13T01:18:00.303Z,65.90
2022-12-13T01:21:07.216Z,65.80
2022-12-13T01:24:10.384Z,66.20
2022-12-13T01:27:13.478Z,65.80
2022-12-13T01:30:18.006Z,65.60
2022-12-13T01:33:20.944Z,65.30
2022-12-13T01:36:27.124Z,65.60
2022-12-13T01:39:31.946Z,65.70
2022-12-13T01:42:41.806Z,65.60
2022-12-13T01:45:46.424Z,65.60
2022-12-13T01:48:56.657Z,65.50
2022-12-13T01:52:06.188Z,65.50
2022-12-13T01:55:12.042Z,65.60
2022-12-13T01:58:17.094Z,65.60
2022-12-13T02:01:23.284Z,65.50
2022-12-13T02:04:34.896Z,65.60
2022-12-13T02:07:50.007Z,65.40
2022-12-13T02:10:53.329Z,65.30
2022-12-13T02:13:56.321Z,65.30
2022-12-13T02:17:08.520Z,64.90
2022-12-13T02:20:52.300Z,65.10
2022-12-13T02:24:36.100Z,64.80
2022-12-13T02:28:04.311Z,64.80
2022-12-13T02:31:37.693Z,65.00
2022-12-13T02:34:46.862Z,64.70
2022-12-13T02:38:00.103Z,65.20
2022-12-13T02:41:14.830Z,64.80
2022-12-13T02:44:23.404Z,64.80
2022-12-13T02:47:32.429Z,65.20
2022-12-13T02:50:37.623Z,64.80
2022-12-13T02:53:44.151Z,64.80
2022-12-13T02:56:55.753Z,64.80
2022-12-13T03:00:05.984Z,64.70
2022-12-13T03:03:24.819Z,64.70
2022-12-13T03:06:44.284Z,64.40
2022-12-13T03:09:59.685Z,64.60
2022-12-13T03:13:29.157Z,64.10
2022-12-13T03:16:38.376Z,64.60
2022-12-13T03:19:43.374Z,64.60
2022-12-13T03:22:46.569Z,64.60
2022-12-13T03:25:54.365Z,64.20
2022-12-13T03:28:57.388Z,64.20
2022-12-13T03:32:00.477Z,64.60
2022-12-13T03:35:05.581Z,64.10
2022-12-13T03:38:28.449Z,64.00
2022-12-13T03:41:32.718Z,64.10
2022-12-13T03:44:35.717Z,63.80
2022-12-13T03:47:38.825Z,63.90
2022-12-13T03:50:43.297Z,63.50
2022-12-13T03:53:46.311Z,63.80
2022-12-13T03:56:49.371Z,63.50
2022-12-13T03:59:52.530Z,63.20
2022-12-13T04:02:55.737Z,64.00
2022-12-13T04:06:00.113Z,62.70
2022-12-13T04:09:03.327Z,62.60
2022-12-13T04:12:24.451Z,63.00
2022-12-13T04:15:28.149Z,62.80
2022-12-13T04:18:31.502Z,62.80
2022-12-13T04:21:35.843Z,62.70
2022-12-13T04:24:38.931Z,62.00
2022-12-13T04:27:41.945Z,62.30
2022-12-13T04:30:44.959Z,62.20
2022-12-13T04:33:47.977Z,62.20
2022-12-13T04:36:52.331Z,62.00
2022-12-13T04:40:00.748Z,61.80
2022-12-13T04:43:04.157Z,62.00
2022-12-13T04:46:07.383Z,62.20
2022-12-13T04:49:10.441Z,61.90
2022-12-13T04:52:22.040Z,61.70
2022-12-13T04:55:25.934Z,61.90
2022-12-13T04:58:29.266Z,61.60
2022-12-13T05:01:32.555Z,61.90
2022-12-13T05:04:36.247Z,62.30
2022-12-13T05:07:42.679Z,62.20
2022-12-13T05:10:46.105Z,62.20
2022-12-13T05:13:49.190Z,62.40
2022-12-13T05:16:53.271Z,62.30
2022-12-13T05:19:56.501Z,62.20
2022-12-13T05:23:00.949Z,62.30
2022-12-13T05:26:05.648Z,61.90
2022-12-13T05:29:08.731Z,62.20
2022-12-13T05:32:11.780Z,62.10
2022-12-13T05:35:21.782Z,62.00
2022-12-13T05:38:28.156Z,61.90
2022-12-13T05:41:37.796Z,61.90
2022-12-13T05:44:40.802Z,61.90
2022-12-13T05:47:44.141Z,61.60
2022-12-13T05:50:47.400Z,61.50
2022-12-13T05:53:53.508Z,61.30
2022-12-13T05:56:56.945Z,61.70
2022-12-13T06:00:00.146Z,61.80
2022-12-13T06:03:03.259Z,62.00
2022-12-13T06:06:09.329Z,62.00
2022-12-13T06:09:13.787Z,61.90
2022-12-13T06:12:31.497Z,62.00
2022-12-13T06:15:35.752Z,62.10
2022-12-13T06:18:48.140Z,62.20
2022-12-13T06:21:55.557Z,62.00
2022-12-13T06:25:01.533Z,61.90
2022-12-13T06:28:05.050Z,61.70
2022-12-13T06:31:08.735Z,61.70
2022-12-13T06:34:13.967Z,61.40
2022-12-13T06:37:18.329Z,61.50
2022-12-13T06:40:23.321Z,61.50
2022-12-13T06:43:26.526Z,61.40
2022-12-13T06:46:29.706Z,61.40
2022-12-13T06:49:32.844Z,61.20
2022-12-13T06:52:36.473Z,61.50
2022-12-13T06:55:40.696Z,61.30
2022-12-13T06:58:44.563Z,61.00
2022-12-13T07:01:50.601Z,61.10
2022-12-13T07:04:56.225Z,61.10
2022-12-13T07:07:59.302Z,61.60
2022-12-13T07:11:03.942Z,61.00
2022-12-13T07:14:07.668Z,60.80
2022-12-13T07:17:11.707Z,60.70
2022-12-13T07:20:15.838Z,60.70
2022-12-13T07:23:19.038Z,59.60
2022-12-13T07:26:29.136Z,60.50
2022-12-13T07:29:32.411Z,60.30
2022-12-13T07:32:35.536Z,60.30
2022-12-13T07:35:38.497Z,60.20
2022-12-13T07:38:42.070Z,60.10
2022-12-13T07:41:49.666Z,60.00
2022-12-13T07:44:53.949Z,59.90
2022-12-13T07:47:57.061Z,59.90
2022-12-13T07:51:04.114Z,60.10
2022-12-13T07:54:08.378Z,59.90
2022-12-13T07:57:13.240Z,60.10
2022-12-13T08:00:17.140Z,60.60
2022-12-13T08:03:25.655Z,60.30
2022-12-13T08:06:29.335Z,59.40
2022-12-13T08:09:32.282Z,60.40
2022-12-13T08:12:36.635Z,60.30
2022-12-13T08:15:39.679Z,60.70
2022-12-13T08:18:44.054Z,60.10
2022-12-13T08:21:56.285Z,60.00
2022-12-13T08:25:00.683Z,60.00
2022-12-13T08:28:05.526Z,60.00
2022-12-13T08:31:12.123Z,60.10
2022-12-13T08:34:15.222Z,60.60
2022-12-13T08:37:18.829Z,60.40
2022-12-13T08:40:22.138Z,60.80
2022-12-13T08:43:26.530Z,60.60
2022-12-13T08:46:29.716Z,60.50
2022-12-13T08:49:32.887Z,60.40
2022-12-13T08:52:40.673Z,60.20
2022-12-13T08:55:45.709Z,60.00
2022-12-13T08:58:52.516Z,59.80
2022-12-13T09:01:58.796Z,59.30
2022-12-13T09:05:08.079Z,59.50
2022-12-13T09:08:22.746Z,59.50
2022-12-13T09:11:34.511Z,59.60
2022-12-13T09:14:45.261Z,59.40
2022-12-13T09:17:52.580Z,59.60
2022-12-13T09:21:10.424Z,59.80
2022-12-13T09:24:24.238Z,59.90
2022-12-13T09:27:29.132Z,60.50
2022-12-13T09:30:33.666Z,60.80
2022-12-13T09:33:41.546Z,60.00
2022-12-13T09:36:44.835Z,60.10
2022-12-13T09:39:48.482Z,60.20
2022-12-13T09:43:12.824Z,60.30
2022-12-13T09:46:34.794Z,59.80
2022-12-13T09:49:53.118Z,60.00
2022-12-13T09:53:00.112Z,60.30
2022-12-13T09:56:10.280Z,60.40
2022-12-13T09:59:15.622Z,60.30
2022-12-13T10:02:27.300Z,60.40
2022-12-13T10:05:35.858Z,60.20
2022-12-13T10:08:45.601Z,60.30
2022-12-13T10:11:51.467Z,60.00
2022-12-13T10:15:00.875Z,60.30
2022-12-13T10:18:07.770Z,59.90
2022-12-13T10:21:19.151Z,59.90
2022-12-13T10:24:31.505Z,59.80
2022-12-13T10:27:42.229Z,60.00
2022-12-13T10:30:46.328Z,59.90
2022-12-13T10:33:57.765Z,60.00
2022-12-13T10:37:02.211Z,59.70
2022-12-13T10:40:06.369Z,59.80
2022-12-13T10:43:15.326Z,60.00
2022-12-13T10:46:25.063Z,59.80
2022-12-13T10:49:41.408Z,59.90
2022-12-13T10:52:48.852Z,59.80
2022-12-13T10:56:02.229Z,59.80
2022-12-13T10:59:27.173Z,59.80
2022-12-13T11:02:36.644Z,59.70
2022-12-13T11:05:41.246Z,59.90
2022-12-13T11:08:45.084Z,60.00
2022-12-13T11:11:51.778Z,59.90
2022-12-13T11:15:07.240Z,59.80
2022-12-13T11:18:24.921Z,60.50
2022-12-13T11:21:32.438Z,59.60
2022-12-13T11:24:40.722Z,60.00
2022-12-13T11:28:03.786Z,60.00
2022-12-13T11:31:39.346Z,59.80
2022-12-13T11:34:55.291Z,59.90
2022-12-13T11:38:15.767Z,59.80
2022-12-13T11:41:31.317Z,60.30
2022-12-13T11:44:50.497Z,59.60
2022-12-13T11:48:04.845Z,59.30
2022-12-13T11:51:11.180Z,59.20
2022-12-13T11:54:24.558Z,58.90
2022-12-13T11:57:40.363Z,59.30
2022-12-13T12:00:50.750Z,59.20
2022-12-13T12:04:02.885Z,59.30
2022-12-13T12:07:31.732Z,59.20
2022-12-13T12:10:49.249Z,59.70
2022-12-13T12:13:57.791Z,59.00
2022-12-13T12:17:01.422Z,59.00
2022-12-13T12:20:07.368Z,58.90
2022-12-13T12:23:29.411Z,58.90
2022-12-13T12:26:46.619Z,58.60
2022-12-13T12:30:05.132Z,58.70
2022-12-13T12:33:18.994Z,57.80
2022-12-13T12:36:48.296Z,58.20
2022-12-13T12:40:27.071Z,58.00
2022-12-13T12:43:40.836Z,57.70
2022-12-13T12:47:31.117Z,58.40
2022-12-13T12:50:43.141Z,58.00
2022-12-13T12:53:55.618Z,58.20
2022-12-13T12:57:10.884Z,58.20
2022-12-13T13:00:18.934Z,57.90
2022-12-13T13:03:25.355Z,58.10
2022-12-13T13:06:35.927Z,58.30
2022-12-13T13:09:41.294Z,58.20
2022-12-13T13:12:45.350Z,58.10
2022-12-13T13:15:57.940Z,57.80
2022-12-13T13:19:02.323Z,57.00
2022-12-13T13:22:06.389Z,58.00
2022-12-13T13:25:33.083Z,57.40
2022-12-13T13:28:36.143Z,57.30
2022-12-13T13:32:01.579Z,57.40
2022-12-13T13:35:50.501Z,56.70
2022-12-13T13:38:55.329Z,56.70
2022-12-13T13:42:19.925Z,57.40
2022-12-13T13:45:25.152Z,57.00
2022-12-13T13:48:53.194Z,57.50
2022-12-13T13:52:27.271Z,57.10
2022-12-13T13:55:49.937Z,57.10
2022-12-13T13:59:38.143Z,57.10
2022-12-13T14:03:55.370Z,57.20
2022-12-13T14:07:53.611Z,57.20
2022-12-13T14:12:14.338Z,57.40
2022-12-13T14:16:20.359Z,57.50
2022-12-13T14:20:26.526Z,57.60
2022-12-13T14:23:50.554Z,58.00
2022-12-13T14:27:13.300Z,57.90
2022-12-13T14:30:28.449Z,58.40
2022-12-13T14:33:32.655Z,58.20
2022-12-13T14:36:39.089Z,58.10
2022-12-13T14:39:46.068Z,58.70
2022-12-13T14:42:54.683Z,58.20
2022-12-13T14:45:59.850Z,58.30
2022-12-13T14:49:07.634Z,58.40
2022-12-13T14:52:26.218Z,58.80
2022-12-13T14:55:36.175Z,59.20
2022-12-13T14:58:40.455Z,58.80
2022-12-13T15:01:44.546Z,58.70
2022-12-13T15:04:47.876Z,58.70
2022-12-13T15:07:53.221Z,59.20
2022-12-13T15:11:01.390Z,59.20
2022-12-13T15:14:12.804Z,59.50
2022-12-13T15:17:35.855Z,59.80
2022-12-13T15:20:42.241Z,59.90
2022-12-13T15:23:48.864Z,59.60
2022-12-13T15:26:53.128Z,61.10
2022-12-13T15:29:56.565Z,60.50
2022-12-13T15:33:08.837Z,60.50
2022-12-13T15:36:18.001Z,60.50
2022-12-13T15:39:24.999Z,60.50
2022-12-13T15:42:35.421Z,60.40
2022-12-13T15:45:42.597Z,60.40
2022-12-13T15:48:50.331Z,60.40
2022-12-13T15:52:02.275Z,60.50
2022-12-13T15:55:34.659Z,60.50
2022-12-13T15:58:38.704Z,60.60
2022-12-13T16:01:41.716Z,61.10
2022-12-13T16:04:44.995Z,60.60
2022-12-13T16:07:56.436Z,60.60
2022-12-13T16:11:01.714Z,60.50
2022-12-13T16:14:40.960Z,60.90
2022-12-13T16:17:56.080Z,61.00
2022-12-13T16:21:02.596Z,60.90
2022-12-13T16:24:06.092Z,60.60
2022-12-13T16:27:11.633Z,60.40
2022-12-13T16:30:23.993Z,60.30
2022-12-13T16:33:27.913Z,60.80
2022-12-13T16:36:30.927Z,60.20
2022-12-13T16:39:33.953Z,59.80
2022-12-13T16:42:38.342Z,60.30
2022-12-13T16:45:45.647Z,60.20
2022-12-13T16:48:48.777Z,60.30
2022-12-13T16:51:52.409Z,61.00
2022-12-13T16:54:55.538Z,60.80
2022-12-13T16:58:03.129Z,60.20
2022-12-13T17:01:12.485Z,60.30
2022-12-13T17:04:21.689Z,60.20
2022-12-13T17:07:27.564Z,60.20
2022-12-13T17:10:32.131Z,60.20
2022-12-13T17:13:36.547Z,60.20
2022-12-13T17:16:39.779Z,60.10
2022-12-13T17:19:42.892Z,60.00
2022-12-13T17:22:47.356Z,60.00
2022-12-13T17:25:58.087Z,60.00
2022-12-13T17:29:03.073Z,60.10
2022-12-13T17:32:06.656Z,60.10
2022-12-13T17:35:14.849Z,60.10
2022-12-13T17:38:21.016Z,60.10
2022-12-13T17:41:24.448Z,60.10
2022-12-13T17:44:28.859Z,60.10
2022-12-13T17:47:31.878Z,60.40
2022-12-13T17:50:35.229Z,60.50
2022-12-13T17:53:40.921Z,61.50
2022-12-13T17:56:44.030Z,61.20
2022-12-13T17:59:48.372Z,61.40
2022-12-13T18:02:55.474Z,61.50
2022-12-13T18:06:00.565Z,61.60
2022-12-13T18:09:04.046Z,61.70
2022-12-13T18:12:08.497Z,61.70
2022-12-13T18:15:12.930Z,61.80
2022-12-13T18:18:16.112Z,61.70
2022-12-13T18:21:20.286Z,61.70
2022-12-13T18:24:23.391Z,61.70
2022-12-13T18:27:26.497Z,61.50
2022-12-13T18:30:32.178Z,61.30
2022-12-13T18:33:36.188Z,61.30
2022-12-13T18:36:40.335Z,61.40
2022-12-13T18:39:43.852Z,61.20
2022-12-13T18:42:57.623Z,61.30
2022-12-13T18:46:03.991Z,61.20
2022-12-13T18:49:07.767Z,61.40
2022-12-13T18:52:11.139Z,61.40
2022-12-13T18:55:15.054Z,61.60
2022-12-13T18:58:18.051Z,61.80
2022-12-13T19:01:26.695Z,61.90
2022-12-13T19:04:29.774Z,62.20
2022-12-13T19:07:32.761Z,61.80
2022-12-13T19:10:35.964Z,62.30
2022-12-13T19:13:38.951Z,62.20
2022-12-13T19:16:43.364Z,62.40
2022-12-13T19:19:48.440Z,62.50
2022-12-13T19:22:51.839Z,62.60
2022-12-13T19:25:54.905Z,62.60
2022-12-13T19:28:59.425Z,62.70
2022-12-13T19:32:03.866Z,62.70
2022-12-13T19:35:08.268Z,62.70
2022-12-13T19:38:11.763Z,62.90
2022-12-13T19:41:19.282Z,63.60
2022-12-13T19:44:22.325Z,63.50
2022-12-13T19:47:26.738Z,63.00
2022-12-13T19:50:31.051Z,63.10
2022-12-13T19:53:35.238Z,63.00
2022-12-13T19:56:38.326Z,63.00
2022-12-13T19:59:41.320Z,63.00
2022-12-13T20:02:45.693Z,63.10
2022-12-13T20:05:58.507Z,63.30
2022-12-13T20:09:01.641Z,63.40
2022-12-13T20:12:05.187Z,63.40
2022-12-13T20:15:09.768Z,63.60
2022-12-13T20:18:14.111Z,63.90
2022-12-13T20:21:17.268Z,64.00
2022-12-13T20:24:20.386Z,63.90
2022-12-13T20:27:23.508Z,64.00
2022-12-13T20:30:26.575Z,64.00
2022-12-13T20:33:30.913Z,64.10
2022-12-13T20:36:33.942Z,64.20
2022-12-13T20:39:37.101Z,64.30
2022-12-13T20:42:40.262Z,64.80
2022-12-13T20:45:43.356Z,65.10
2022-12-13T20:48:49.387Z,65.10
2022-12-13T20:51:52.515Z,65.10
2022-12-13T20:54:55.559Z,65.30
2022-12-13T20:57:58.608Z,65.40
2022-12-13T21:01:02.380Z,65.80
2022-12-13T21:04:09.465Z,65.50
2022-12-13T21:07:12.462Z,65.70
2022-12-13T21:10:15.506Z,65.70
2022-12-13T21:13:18.654Z,65.20
2022-12-13T21:16:23.576Z,65.60
2022-12-13T21:19:35.827Z,65.50
2022-12-13T21:22:42.269Z,65.80
2022-12-13T21:25:45.337Z,65.60
2022-12-13T21:28:54.268Z,65.50
2022-12-13T21:31:57.332Z,65.80
2022-12-13T21:35:01.784Z,65.70
2022-12-13T21:38:05.566Z,65.80
2022-12-13T21:41:10.748Z,65.80
2022-12-13T21:44:16.647Z,65.90
2022-12-13T21:47:19.731Z,66.40
2022-12-13T21:50:24.116Z,66.10
2022-12-13T21:53:28.380Z,66.30
2022-12-13T21:56:50.099Z,66.30
2022-12-13T21:59:53.081Z,66.90
2022-12-13T22:02:56.274Z,66.30
2022-12-13T22:06:00.672Z,66.40
2022-12-13T22:09:03.959Z,66.90
2022-12-13T22:12:10.747Z,66.90
2022-12-13T22:15:16.543Z,67.20
2022-12-13T22:18:19.766Z,67.00
2022-12-13T22:21:24.447Z,67.00
2022-12-13T22:24:27.621Z,67.10
2022-12-13T22:27:30.627Z,67.00
2022-12-13T22:30:33.866Z,67.10
2022-12-13T22:33:36.911Z,67.20
2022-12-13T22:36:41.254Z,67.90
2022-12-13T22:39:44.252Z,67.40
2022-12-13T22:42:48.446Z,67.30
2022-12-13T22:45:51.725Z,67.00
2022-12-13T22:48:55.877Z,68.00
2022-12-13T22:52:00.163Z,67.10
2022-12-13T22:55:03.678Z,67.70
2022-12-13T22:58:06.673Z,67.70
2022-12-13T23:01:12.162Z,67.80
2022-12-13T23:04:15.611Z,67.80
2022-12-13T23:07:20.017Z,67.90
2022-12-13T23:10:40.834Z,67.90
2022-12-13T23:13:43.818Z,67.70
2022-12-13T23:16:51.496Z,67.70
2022-12-13T23:19:54.685Z,67.70
2022-12-13T23:22:59.771Z,67.70
2022-12-13T23:26:10.468Z,67.70
2022-12-13T23:29:13.923Z,67.90
2022-12-13T23:32:17.492Z,67.80
2022-12-13T23:35:20.424Z,67.70
2022-12-13T23:38:25.126Z,67.70
2022-12-13T23:41:33.637Z,67.60
2022-12-13T23:44:37.717Z,67.70
2022-12-13T23:47:40.697Z,67.70
2022-12-13T23:50:43.728Z,67.50
2022-12-13T23:53:48.267Z,67.70
2022-12-13T23:56:51.260Z,68.20
2022-12-13T23:59:54.339Z,67.60
